Time;durP1;ratioP1;P1;durP2;ratioP2;P2;SDS_P1;SDS_P2;PMS_P1;PMS_P2;Temp;Humidity;BMP_temperature;BMP_pressure;BME280_temperature;BME280_humidity;BME280_pressure;Samples;Min_cycle;Max_cycle;Signal;HPM_P1;HPM_P2
2021/04/06 00:01:56;;;;;;;15.30;4.47;;;2.40;99.90;;;;;;5044966;28;20040;-60
2021/04/06 00:04:31;;;;;;;11.57;3.60;;;2.40;99.90;;;;;;5032648;28;20292;-61
2021/04/06 00:07:04;;;;;;;13.23;3.73;;;2.50;99.90;;;;;;5045018;28;20291;-60
2021/04/06 00:09:33;;;;;;;13.97;4.57;;;2.50;99.90;;;;;;5044870;28;20271;-60
2021/04/06 00:12:02;;;;;;;15.50;3.13;;;2.60;99.90;;;;;;5044325;28;20322;-60
2021/04/06 00:14:29;;;;;;;8.83;3.13;;;2.60;99.90;;;;;;5044369;28;20311;-60
2021/04/06 00:16:57;;;;;;;12.20;3.60;;;2.60;99.90;;;;;;5034762;28;22380;-60
2021/04/06 00:19:25;;;;;;;11.10;3.43;;;2.60;99.90;;;;;;5044974;28;20283;-60
2021/04/06 00:21:55;;;;;;;8.40;2.50;;;2.60;99.90;;;;;;5044542;28;20275;-60
2021/04/06 00:24:27;;;;;;;17.90;3.30;;;2.60;99.90;;;;;;5044607;28;20282;-60
2021/04/06 00:27:04;;;;;;;16.35;4.78;;;2.60;99.90;;;;;;5043717;28;20912;-60
2021/04/06 00:29:34;;;;;;;16.87;3.90;;;2.70;99.90;;;;;;5059382;28;20033;-60
2021/04/06 00:32:04;;;;;;;13.10;3.33;;;2.70;99.90;;;;;;5052066;28;20279;-60
2021/04/06 00:34:33;;;;;;;11.67;3.30;;;2.80;99.90;;;;;;5045566;28;20271;-60
2021/04/06 00:37:06;;;;;;;12.63;2.87;;;2.90;99.90;;;;;;5045014;28;20309;-60
2021/04/06 00:39:35;;;;;;;16.77;4.00;;;2.90;99.90;;;;;;5060377;28;20283;-60
2021/04/06 00:42:17;;;;;;;10.73;2.83;;;2.90;99.90;;;;;;5043141;28;20289;-60
2021/04/06 00:44:53;;;;;;;14.43;3.27;;;2.90;99.90;;;;;;5059087;28;20389;-60
2021/04/06 00:47:27;;;;;;;10.47;2.17;;;2.90;99.90;;;;;;5041523;28;20291;-60
2021/04/06 00:49:57;;;;;;;11.80;2.83;;;2.90;99.90;;;;;;5041484;28;20274;-60
2021/04/06 00:52:25;;;;;;;8.70;2.70;;;2.90;99.90;;;;;;5040775;28;20279;-60
2021/04/06 00:54:57;;;;;;;10.20;2.50;;;3.00;99.90;;;;;;5041201;28;20373;-60
2021/04/06 00:57:26;;;;;;;11.20;2.17;;;3.00;99.90;;;;;;5041752;28;20282;-60
2021/04/06 01:00:13;;;;;;;13.03;2.80;;;3.10;99.90;;;;;;5041655;28;20037;-60
2021/04/06 01:02:56;;;;;;;7.33;2.90;;;3.10;99.90;;;;;;5042283;28;20327;-60
2021/04/06 01:05:22;;;;;;;12.05;2.60;;;3.10;99.90;;;;;;5042050;28;20295;-60
2021/04/06 01:07:48;;;;;;;12.40;2.90;;;3.10;99.90;;;;;;5042766;28;20037;-60
2021/04/06 01:10:18;;;;;;;13.27;2.27;;;3.10;99.90;;;;;;5039257;28;20045;-60
2021/04/06 01:12:46;;;;;;;16.00;3.17;;;3.10;99.90;;;;;;5042788;28;20275;-60
2021/04/06 01:15:13;;;;;;;17.67;3.13;;;3.10;99.90;;;;;;5041149;28;20372;-60
2021/04/06 01:17:42;;;;;;;15.10;2.90;;;3.20;99.90;;;;;;5057316;28;20279;-60
2021/04/06 01:20:17;;;;;;;16.73;3.13;;;3.20;99.90;;;;;;5042250;28;20337;-60
2021/04/06 01:22:45;;;;;;;16.33;4.83;;;3.20;99.90;;;;;;5042395;28;20297;-60
2021/04/06 01:25:21;;;;;;;9.63;2.77;;;3.20;99.90;;;;;;5042262;28;20275;-60
2021/04/06 01:27:55;;;;;;;15.40;3.77;;;3.20;99.90;;;;;;5042436;28;21204;-60
2021/04/06 01:30:22;;;;;;;9.97;2.30;;;3.10;99.90;;;;;;5042885;28;20279;-61
2021/04/06 01:32:51;;;;;;;17.93;3.90;;;3.10;99.90;;;;;;5042586;28;20319;-59
2021/04/06 01:35:20;;;;;;;14.33;3.00;;;3.10;99.90;;;;;;5042840;28;20283;-59
2021/04/06 01:37:46;;;;;;;12.40;3.17;;;3.20;99.90;;;;;;5051290;28;20307;-59
2021/04/06 01:40:15;;;;;;;15.90;3.03;;;3.10;99.90;;;;;;5041817;28;20275;-59
2021/04/06 01:42:41;;;;;;;13.73;3.23;;;3.20;99.90;;;;;;5043311;28;20310;-59
2021/04/06 01:45:10;;;;;;;13.47;3.17;;;3.10;99.90;;;;;;5042549;28;20464;-59
2021/04/06 01:47:36;;;;;;;18.93;4.23;;;3.20;99.90;;;;;;5043352;28;20279;-59
2021/04/06 01:50:04;;;;;;;11.47;2.57;;;3.20;99.90;;;;;;5042747;28;20287;-59
2021/04/06 01:52:33;;;;;;;20.57;2.90;;;3.10;99.90;;;;;;5042846;28;20279;-59
2021/04/06 01:55:06;;;;;;;15.00;4.47;;;3.10;99.90;;;;;;5043047;28;21011;-59
2021/04/06 01:57:38;;;;;;;23.52;3.85;;;3.10;99.90;;;;;;5043023;28;20274;-60
2021/04/06 02:00:23;;;;;;;15.77;3.90;;;3.00;99.90;;;;;;5042345;28;20029;-60
2021/04/06 02:02:49;;;;;;;9.87;3.63;;;3.00;99.90;;;;;;5035007;28;20036;-59
2021/04/06 02:05:18;;;;;;;16.73;3.20;;;3.10;99.90;;;;;;5042847;28;20297;-59
2021/04/06 02:07:45;;;;;;;19.07;3.13;;;3.00;99.90;;;;;;5038377;28;20755;-59
2021/04/06 02:10:12;;;;;;;13.07;2.50;;;3.10;99.90;;;;;;5042862;28;20306;-59
2021/04/06 02:12:47;;;;;;;13.77;2.90;;;3.00;99.90;;;;;;5058952;28;22776;-59
2021/04/06 02:15:14;;;;;;;13.63;2.83;;;3.10;99.90;;;;;;5043290;28;20326;-59
2021/04/06 02:17:56;;;;;;;15.37;3.73;;;3.10;99.90;;;;;;5042836;28;20334;-59
2021/04/06 02:20:23;;;;;;;17.53;4.43;;;3.10;99.90;;;;;;5040248;28;20291;-59
2021/04/06 02:22:58;;;;;;;13.83;4.23;;;3.10;99.90;;;;;;5042298;28;20305;-59
2021/04/06 02:25:28;;;;;;;16.13;3.37;;;3.10;99.90;;;;;;5049431;28;20295;-59
2021/04/06 02:27:54;;;;;;;19.50;3.60;;;3.00;99.90;;;;;;5038867;28;20283;-59
2021/04/06 02:30:29;;;;;;;25.83;4.70;;;2.90;99.90;;;;;;5039563;28;20787;-59
2021/04/06 02:32:57;;;;;;;19.23;3.50;;;2.90;99.90;;;;;;5042831;28;20287;-59
2021/04/06 02:35:23;;;;;;;19.23;4.30;;;2.90;99.90;;;;;;5042326;28;21026;-58
2021/04/06 02:37:48;;;;;;;13.90;3.50;;;2.90;99.90;;;;;;5041092;28;20293;-59
2021/04/06 02:40:18;;;;;;;17.37;3.33;;;2.90;99.90;;;;;;5041101;28;20037;-59
2021/04/06 02:42:45;;;;;;;19.67;3.30;;;2.80;99.90;;;;;;5041719;28;20033;-58
2021/04/06 02:45:19;;;;;;;19.90;5.03;;;2.90;99.90;;;;;;5041332;28;20279;-58
2021/04/06 02:47:52;;;;;;;16.87;2.97;;;2.90;99.90;;;;;;5038442;28;20648;-58
2021/04/06 02:50:22;;;;;;;12.13;3.00;;;2.90;99.90;;;;;;5054579;28;20668;-59
2021/04/06 02:52:48;;;;;;;19.33;3.57;;;2.90;99.90;;;;;;5038737;28;20048;-58
2021/04/06 02:55:17;;;;;;;22.77;3.57;;;2.90;99.90;;;;;;5054129;28;20275;-59
2021/04/06 02:57:46;;;;;;;14.83;3.50;;;2.80;99.90;;;;;;5038717;28;20275;-58
2021/04/06 03:00:33;;;;;;;12.20;2.67;;;2.80;99.90;;;;;;5037689;28;20785;-58
2021/04/06 03:03:03;;;;;;;15.30;4.23;;;2.70;99.90;;;;;;5029275;28;20947;-58
2021/04/06 03:05:37;;;;;;;11.93;3.20;;;2.70;99.90;;;;;;5041109;28;20704;-58
2021/04/06 03:08:04;;;;;;;14.53;3.60;;;2.70;99.90;;;;;;5042564;28;20354;-59
2021/04/06 03:10:39;;;;;;;15.00;3.87;;;2.60;99.90;;;;;;5042717;28;20378;-58
2021/04/06 03:13:10;;;;;;;13.57;3.77;;;2.60;99.90;;;;;;5032857;28;20727;-58
2021/04/06 03:15:39;;;;;;;16.27;4.20;;;2.60;99.90;;;;;;5042947;28;20283;-59
2021/04/06 03:18:09;;;;;;;20.03;4.87;;;2.60;99.90;;;;;;5041341;28;20318;-58
2021/04/06 03:20:39;;;;;;;19.40;4.70;;;2.50;99.90;;;;;;5042697;28;20283;-58
2021/04/06 03:23:06;;;;;;;20.30;5.20;;;2.60;99.90;;;;;;5042623;28;20283;-58
2021/04/06 03:25:33;;;;;;;18.13;5.20;;;2.60;99.90;;;;;;5042961;28;20295;-58
2021/04/06 03:28:10;;;;;;;15.13;4.83;;;2.70;99.90;;;;;;5039589;28;20767;-59
2021/04/06 03:30:37;;;;;;;31.60;5.03;;;2.60;99.90;;;;;;5042676;28;20272;-58
2021/04/06 03:33:07;;;;;;;18.47;4.80;;;2.60;99.90;;;;;;5042585;28;20283;-59
2021/04/06 03:35:36;;;;;;;15.27;4.73;;;2.60;99.90;;;;;;5039463;28;20283;-58
2021/04/06 03:38:08;;;;;;;13.80;3.70;;;2.60;99.90;;;;;;5042654;28;20366;-59
2021/04/06 03:40:36;;;;;;;19.52;3.30;;;2.60;99.90;;;;;;5039639;28;20302;-59
2021/04/06 03:43:24;;;;;;;15.87;3.57;;;2.70;99.90;;;;;;5042461;28;20029;-58
2021/04/06 03:46:03;;;;;;;11.07;3.30;;;2.60;99.90;;;;;;5041955;28;20319;-59
2021/04/06 03:48:34;;;;;;;13.47;3.97;;;2.60;99.90;;;;;;5038943;28;20283;-59
2021/04/06 03:51:02;;;;;;;10.37;3.23;;;2.50;99.90;;;;;;5041926;28;21021;-59
2021/04/06 03:53:44;;;;;;;9.73;3.07;;;2.40;99.90;;;;;;5042352;28;20437;-58
2021/04/06 03:56:13;;;;;;;17.37;4.37;;;2.30;99.90;;;;;;5041957;28;20613;-59
2021/04/06 03:58:56;;;;;;;13.33;3.50;;;2.30;99.90;;;;;;5059584;28;20377;-59
2021/04/06 04:01:24;;;;;;;18.57;5.67;;;2.30;99.90;;;;;;5033233;28;20826;-59
2021/04/06 04:03:56;;;;;;;14.83;4.87;;;2.30;99.90;;;;;;5043232;28;20300;-58
2021/04/06 04:06:29;;;;;;;17.35;4.40;;;2.40;99.90;;;;;;5041178;28;20284;-59
2021/04/06 04:08:56;;;;;;;16.90;5.67;;;2.30;99.90;;;;;;5041714;28;20029;-59
2021/04/06 04:11:24;;;;;;;16.23;4.67;;;2.30;99.90;;;;;;5045456;28;22217;-59
2021/04/06 04:13:50;;;;;;;17.00;4.73;;;2.30;99.90;;;;;;5044645;28;20283;-59
2021/04/06 04:16:19;;;;;;;9.67;4.40;;;2.40;99.90;;;;;;5043871;28;21040;-59
2021/04/06 04:18:45;;;;;;;13.97;5.03;;;2.40;99.90;;;;;;5044793;28;20028;-59
2021/04/06 04:21:13;;;;;;;18.27;4.50;;;2.40;99.90;;;;;;5043884;28;20295;-59
2021/04/06 04:23:39;;;;;;;15.90;4.47;;;2.50;99.90;;;;;;5041691;28;20056;-60
2021/04/06 04:26:05;;;;;;;15.33;5.80;;;2.40;99.90;;;;;;5041588;28;20442;-60
2021/04/06 04:28:33;;;;;;;14.90;4.70;;;2.50;99.90;;;;;;5041500;28;22233;-58
2021/04/06 04:31:05;;;;;;;24.70;5.87;;;2.60;99.90;;;;;;5041664;28;20122;-60
2021/04/06 04:33:36;;;;;;;12.47;4.87;;;2.60;99.90;;;;;;5038150;28;20278;-61
2021/04/06 04:36:04;;;;;;;17.47;5.27;;;2.60;99.90;;;;;;5048411;28;21799;-60
2021/04/06 04:38:32;;;;;;;17.60;5.40;;;2.60;99.90;;;;;;5039835;28;20295;-61
2021/04/06 04:40:58;;;;;;;16.00;4.90;;;2.50;99.90;;;;;;5041214;28;20298;-63
2021/04/06 04:43:24;;;;;;;18.73;5.77;;;2.50;99.90;;;;;;5039924;28;20291;-60
2021/04/06 04:45:52;;;;;;;20.50;5.30;;;2.50;99.90;;;;;;5041715;28;20782;-60
2021/04/06 04:48:18;;;;;;;13.07;3.87;;;2.50;99.90;;;;;;5056871;28;20033;-60
2021/04/06 04:50:43;;;;;;;17.00;4.97;;;2.40;99.90;;;;;;5040388;28;21168;-60
2021/04/06 04:53:11;;;;;;;21.37;4.17;;;2.40;99.90;;;;;;5055792;28;20028;-60
2021/04/06 04:55:37;;;;;;;16.33;3.30;;;2.40;99.90;;;;;;5040598;28;20079;-60
2021/04/06 04:58:03;;;;;;;13.60;4.83;;;2.30;99.90;;;;;;5040413;28;20383;-60
2021/04/06 05:00:28;;;;;;;16.80;3.27;;;2.30;99.90;;;;;;5039817;28;20071;-60
2021/04/06 05:02:54;;;;;;;15.30;2.87;;;2.30;99.90;;;;;;5040213;28;20056;-61
2021/04/06 05:05:20;;;;;;;16.63;3.70;;;2.20;99.90;;;;;;5036957;28;20149;-60
2021/04/06 05:07:46;;;;;;;12.47;2.87;;;2.30;99.90;;;;;;5046946;28;20131;-60
2021/04/06 05:10:15;;;;;;;17.33;2.67;;;2.40;99.90;;;;;;5040441;28;20021;-60
2021/04/06 05:12:41;;;;;;;17.47;2.40;;;2.30;99.90;;;;;;5055630;28;20270;-60
2021/04/06 05:15:08;;;;;;;14.73;2.53;;;2.30;99.90;;;;;;5040425;28;20331;-60
2021/04/06 05:17:34;;;;;;;14.57;2.83;;;2.30;99.90;;;;;;5040161;28;20364;-60
2021/04/06 05:20:00;;;;;;;9.00;2.40;;;2.40;99.90;;;;;;5054539;28;20390;-60
2021/04/06 05:22:26;;;;;;;18.70;2.90;;;2.50;99.90;;;;;;5040234;28;20344;-60
2021/04/06 05:24:54;;;;;;;16.70;2.10;;;2.40;99.90;;;;;;5035904;28;20088;-60
2021/04/06 05:27:24;;;;;;;10.13;2.30;;;2.40;99.90;;;;;;5039449;28;20163;-60
2021/04/06 05:29:50;;;;;;;16.73;3.53;;;2.40;99.90;;;;;;5039504;28;20279;-60
2021/04/06 05:32:15;;;;;;;12.97;2.47;;;2.50;99.90;;;;;;5040145;28;22380;-60
2021/04/06 05:34:41;;;;;;;10.57;2.43;;;2.50;99.90;;;;;;5039887;28;20025;-60
2021/04/06 05:37:07;;;;;;;9.87;2.57;;;2.50;99.90;;;;;;5038325;28;20048;-60
2021/04/06 05:39:33;;;;;;;14.70;2.77;;;2.50;99.90;;;;;;5055026;28;20112;-60
2021/04/06 05:42:01;;;;;;;10.83;2.47;;;2.60;99.90;;;;;;5043450;28;20029;-60
2021/04/06 05:44:27;;;;;;;12.30;2.60;;;2.60;99.90;;;;;;5033609;28;20028;-60
2021/04/06 05:46:55;;;;;;;14.60;2.30;;;2.60;99.90;;;;;;5042049;28;20287;-60
2021/04/06 05:49:26;;;;;;;11.97;2.87;;;2.60;99.90;;;;;;5038199;28;20299;-60
2021/04/06 05:51:56;;;;;;;12.37;3.23;;;2.60;99.90;;;;;;5042066;28;20283;-60
2021/04/06 05:54:23;;;;;;;10.57;3.57;;;2.60;99.90;;;;;;5038042;28;20291;-60
2021/04/06 05:56:51;;;;;;;12.30;3.63;;;2.60;99.90;;;;;;5038825;28;20313;-60
2021/04/06 05:59:20;;;;;;;13.03;3.10;;;2.60;99.90;;;;;;5037652;28;20311;-60
2021/04/06 06:01:47;;;;;;;9.37;2.67;;;2.60;99.90;;;;;;5038458;28;20286;-59
2021/04/06 06:04:17;;;;;;;10.07;2.80;;;2.70;99.90;;;;;;5037741;28;20281;-60
2021/04/06 06:06:44;;;;;;;12.97;3.13;;;2.70;99.90;;;;;;5038707;28;20767;-60
2021/04/06 06:09:13;;;;;;;12.30;2.93;;;2.80;99.90;;;;;;5028777;28;20781;-60
2021/04/06 06:12:05;;;;;;;10.93;2.67;;;2.80;99.90;;;;;;5036997;28;20283;-60
2021/04/06 06:14:41;;;;;;;12.07;2.73;;;2.90;99.90;;;;;;5038768;28;20304;-60
2021/04/06 06:17:22;;;;;;;10.03;2.90;;;2.90;99.90;;;;;;5029469;28;20283;-60
2021/04/06 06:19:51;;;;;;;14.13;2.40;;;2.90;99.90;;;;;;5038900;28;20295;-60
2021/04/06 06:22:27;;;;;;;8.60;2.20;;;2.90;99.90;;;;;;5038614;28;20285;-60
2021/04/06 06:25:16;;;;;;;12.23;3.57;;;2.80;99.90;;;;;;5030913;28;20290;-60
2021/04/06 06:27:45;;;;;;;6.87;2.60;;;2.90;99.90;;;;;;5038078;28;20295;-60
2021/04/06 06:30:32;;;;;;;12.43;3.03;;;3.00;99.90;;;;;;5039371;28;20849;-60
2021/04/06 06:33:21;;;;;;;11.27;2.37;;;3.00;99.90;;;;;;5041945;28;20677;-60
2021/04/06 06:35:54;;;;;;;9.03;1.87;;;3.00;99.90;;;;;;5040328;28;20275;-60
2021/04/06 06:38:26;;;;;;;4.93;1.90;;;3.00;99.90;;;;;;5037571;28;20275;-60
2021/04/06 06:41:08;;;;;;;6.17;2.73;;;2.90;99.90;;;;;;5037624;28;20290;-60
2021/04/06 06:43:35;;;;;;;6.55;1.40;;;2.90;99.90;;;;;;5043720;28;20279;-60
2021/04/06 06:46:15;;;;;;;10.20;2.30;;;2.90;99.90;;;;;;5041952;28;20040;-59
2021/04/06 06:48:40;;;;;;;8.73;1.70;;;2.90;99.90;;;;;;5043065;28;20374;-60
2021/04/06 06:51:15;;;;;;;10.47;2.37;;;2.90;99.90;;;;;;5042426;28;20302;-60
2021/04/06 06:53:41;;;;;;;9.93;2.67;;;2.90;99.90;;;;;;5042237;28;20033;-60
2021/04/06 06:56:11;;;;;;;9.23;1.50;;;2.80;99.90;;;;;;5050556;28;20359;-60
2021/04/06 06:58:42;;;;;;;6.97;2.37;;;3.00;99.90;;;;;;5042594;28;20275;-60
2021/04/06 07:01:32;;;;;;;5.10;1.90;;;3.20;99.90;;;;;;5050098;28;20352;-60
2021/04/06 07:04:05;;;;;;;8.80;2.40;;;3.30;99.90;;;;;;5041955;28;20321;-59
2021/04/06 07:06:32;;;;;;;11.67;2.77;;;3.40;99.90;;;;;;5042884;28;20287;-60
2021/04/06 07:08:58;;;;;;;9.80;3.07;;;3.50;99.90;;;;;;5042636;28;20318;-60
2021/04/06 07:11:27;;;;;;;12.20;3.23;;;3.50;99.90;;;;;;5042542;28;20721;-59
2021/04/06 07:13:56;;;;;;;15.23;3.40;;;3.50;99.90;;;;;;5042976;28;20279;-60
2021/04/06 07:16:25;;;;;;;10.00;3.50;;;3.60;99.90;;;;;;5042664;28;20286;-60
2021/04/06 07:18:51;;;;;;;10.83;3.30;;;3.50;99.90;;;;;;5041834;28;20671;-60
2021/04/06 07:21:19;;;;;;;12.40;3.63;;;3.50;99.90;;;;;;5041987;28;20275;-60
2021/04/06 07:23:50;;;;;;;12.53;3.43;;;3.40;99.90;;;;;;5041786;28;20024;-60
2021/04/06 07:26:19;;;;;;;13.10;3.53;;;3.50;99.90;;;;;;5038011;28;20663;-60
2021/04/06 07:28:47;;;;;;;10.40;3.17;;;3.60;99.90;;;;;;5031711;28;20725;-60
2021/04/06 07:31:17;;;;;;;8.70;3.67;;;3.60;99.90;;;;;;5041622;28;20780;-60
2021/04/06 07:33:45;;;;;;;15.27;3.67;;;3.80;99.90;;;;;;5041271;28;20290;-60
2021/04/06 07:36:13;;;;;;;9.30;3.73;;;3.90;99.90;;;;;;5049613;28;20291;-60
2021/04/06 07:38:43;;;;;;;13.93;3.10;;;3.80;99.90;;;;;;5048559;28;20842;-60
2021/04/06 07:41:09;;;;;;;11.33;3.50;;;4.00;99.90;;;;;;5040784;28;21303;-60
2021/04/06 07:43:38;;;;;;;15.27;3.10;;;4.20;99.90;;;;;;5041579;28;20288;-60
2021/04/06 07:46:04;;;;;;;18.70;3.20;;;4.10;99.90;;;;;;5056023;28;20301;-60
2021/04/06 07:48:45;;;;;;;12.83;3.20;;;4.20;99.90;;;;;;5040561;28;20279;-60
2021/04/06 07:51:15;;;;;;;11.23;2.93;;;4.20;99.90;;;;;;5039226;28;20033;-60
2021/04/06 07:53:54;;;;;;;13.07;2.67;;;4.20;99.90;;;;;;5041451;28;20275;-60
2021/04/06 07:56:45;;;;;;;22.70;3.53;;;4.30;99.90;;;;;;5041998;28;20290;-60
2021/04/06 07:59:33;;;;;;;11.47;2.30;;;4.30;99.90;;;;;;5041654;28;20338;-59
2021/04/06 08:02:00;;;;;;;14.20;2.60;;;4.30;99.90;;;;;;5049238;28;22253;-59
2021/04/06 08:04:38;;;;;;;11.70;2.33;;;4.20;99.90;;;;;;5041902;28;20388;-60
2021/04/06 08:07:24;;;;;;;15.03;2.60;;;4.30;99.90;;;;;;5041525;28;20279;-60
2021/04/06 08:09:53;;;;;;;9.13;2.23;;;4.50;99.90;;;;;;5041264;28;20280;-60
2021/04/06 08:12:21;;;;;;;8.53;2.10;;;4.60;99.40;;;;;;5048316;28;20759;-59
2021/04/06 08:15:12;;;;;;;8.03;2.30;;;4.60;99.90;;;;;;5041782;28;20800;-59
2021/04/06 08:17:48;;;;;;;8.63;2.20;;;4.60;98.50;;;;;;5041705;28;20406;-60
2021/04/06 08:20:22;;;;;;;6.03;2.60;;;4.50;99.50;;;;;;5041115;28;20330;-59
2021/04/06 08:22:57;;;;;;;11.70;2.80;;;4.40;99.90;;;;;;5038874;28;20279;-59
2021/04/06 08:25:23;;;;;;;13.43;2.40;;;4.40;99.90;;;;;;5041307;28;20360;-59
2021/04/06 08:27:51;;;;;;;13.57;2.43;;;4.50;99.90;;;;;;5037826;28;20279;-60
2021/04/06 08:30:19;;;;;;;12.00;2.90;;;4.60;99.90;;;;;;5039869;28;20283;-60
2021/04/06 08:33:00;;;;;;;13.50;2.87;;;4.50;99.10;;;;;;5041374;28;20371;-60
2021/04/06 08:35:47;;;;;;;10.47;2.67;;;4.70;99.40;;;;;;5040469;28;20804;-60
2021/04/06 08:38:22;;;;;;;11.90;3.13;;;4.90;99.50;;;;;;5030952;28;20337;-61
2021/04/06 08:40:59;;;;;;;16.13;2.87;;;5.30;98.10;;;;;;5040546;28;20947;-60
2021/04/06 08:43:41;;;;;;;12.47;3.07;;;5.40;97.50;;;;;;5040155;28;21738;-60
2021/04/06 08:46:25;;;;;;;11.07;2.90;;;5.60;97.50;;;;;;5040654;28;20288;-60
2021/04/06 08:48:53;;;;;;;10.07;2.37;;;5.80;96.60;;;;;;5036278;28;20929;-59
2021/04/06 08:51:26;;;;;;;8.90;2.50;;;5.50;95.70;;;;;;5040735;28;20290;-59
2021/04/06 08:53:56;;;;;;;9.48;2.95;;;5.30;96.30;;;;;;5038047;28;20275;-59
2021/04/06 08:56:34;;;;;;;11.40;3.23;;;5.30;95.70;;;;;;5056718;28;20075;-60
2021/04/06 08:59:32;;;;;;;9.63;2.60;;;5.50;95.80;;;;;;5040312;28;20291;-60
2021/04/06 09:02:00;;;;;;;9.37;2.43;;;5.60;95.60;;;;;;5047376;28;20306;-60
2021/04/06 09:04:34;;;;;;;8.93;2.40;;;5.70;96.00;;;;;;5040961;28;20365;-60
2021/04/06 09:07:14;;;;;;;7.90;2.63;;;5.70;95.80;;;;;;5030783;28;20306;-61
2021/04/06 09:09:40;;;;;;;9.63;2.90;;;5.60;94.40;;;;;;5039931;28;20330;-60
2021/04/06 09:12:09;;;;;;;11.83;3.10;;;5.20;95.40;;;;;;5040622;28;20310;-60
2021/04/06 09:14:35;;;;;;;9.87;2.50;;;4.90;96.50;;;;;;5040206;28;20276;-60
2021/04/06 09:17:04;;;;;;;11.53;2.57;;;4.90;97.50;;;;;;5040291;28;20390;-60
2021/04/06 09:19:37;;;;;;;7.73;2.53;;;5.20;96.10;;;;;;5056169;28;20759;-60
2021/04/06 09:22:07;;;;;;;2.80;1.30;;;5.50;95.70;;;;;;5055649;28;20295;-60
2021/04/06 09:24:33;;;;;;;7.00;1.83;;;5.80;94.50;;;;;;5040235;28;20306;-60
2021/04/06 09:27:02;;;;;;;4.93;1.90;;;5.70;95.20;;;;;;5047015;28;20283;-60
2021/04/06 09:29:34;;;;;;;5.83;2.50;;;5.60;94.90;;;;;;5039971;28;20035;-59
2021/04/06 09:32:03;;;;;;;8.57;2.63;;;5.80;95.10;;;;;;5037050;28;20370;-58
2021/04/06 09:34:39;;;;;;;9.63;2.30;;;6.30;94.20;;;;;;5040007;28;20123;-59
2021/04/06 09:37:15;;;;;;;6.73;2.57;;;6.40;92.70;;;;;;5039174;28;20493;-58
2021/04/06 09:39:50;;;;;;;10.20;2.70;;;5.90;94.90;;;;;;5039764;28;20041;-61
2021/04/06 09:42:17;;;;;;;9.17;2.07;;;5.70;96.30;;;;;;5039651;28;20290;-58
2021/04/06 09:44:45;;;;;;;6.13;2.20;;;5.60;96.00;;;;;;5029889;28;20283;-59
2021/04/06 09:47:16;;;;;;;7.73;2.27;;;5.50;97.30;;;;;;5039766;28;20279;-59
2021/04/06 09:49:53;;;;;;;5.93;2.23;;;5.40;97.00;;;;;;5030255;28;20287;-59
2021/04/06 09:52:21;;;;;;;5.00;1.87;;;5.40;96.50;;;;;;5054075;28;20309;-59
2021/04/06 09:55:00;;;;;;;11.27;2.87;;;5.70;96.70;;;;;;5038482;28;20275;-59
2021/04/06 09:57:38;;;;;;;9.97;3.07;;;5.90;94.30;;;;;;5039472;28;20053;-59
2021/04/06 10:00:07;;;;;;;4.10;1.70;;;6.00;94.80;;;;;;5039602;28;20047;-58
2021/04/06 10:02:35;;;;;;;12.43;4.43;;;6.10;91.50;;;;;;5038587;28;20110;-58
2021/04/06 10:05:01;;;;;;;5.67;1.93;;;6.10;87.50;;;;;;5039110;28;20092;-59
2021/04/06 10:07:30;;;;;;;10.33;1.70;;;6.20;90.40;;;;;;5037610;28;20697;-59
2021/04/06 10:10:02;;;;;;;10.57;2.67;;;6.30;89.70;;;;;;5045780;28;20025;-59
2021/04/06 10:12:33;;;;;;;7.13;1.80;;;6.40;85.90;;;;;;5038307;28;20057;-59
2021/04/06 10:15:00;;;;;;;6.57;1.50;;;6.60;84.70;;;;;;5052306;28;20283;-58
2021/04/06 10:17:37;;;;;;;7.03;2.40;;;6.70;84.40;;;;;;5054157;28;20056;-58
2021/04/06 10:20:19;;;;;;;5.47;1.63;;;6.80;87.90;;;;;;5039592;28;20350;-58
2021/04/06 10:22:49;;;;;;;9.93;1.50;;;6.90;84.30;;;;;;5038369;28;20033;-58
2021/04/06 10:25:21;;;;;;;3.50;1.77;;;6.90;79.10;;;;;;5038914;28;20120;-59
2021/04/06 10:27:53;;;;;;;4.45;1.63;;;6.90;80.60;;;;;;5039019;28;20098;-58
2021/04/06 10:30:44;;;;;;;8.40;1.55;;;6.90;79.70;;;;;;5038747;28;20032;-59
2021/04/06 10:33:21;;;;;;;6.20;1.40;;;6.70;85.50;;;;;;5054266;28;20041;-59
2021/04/06 10:36:00;;;;;;;10.17;1.60;;;6.50;90.50;;;;;;5039064;28;20052;-58
2021/04/06 10:38:37;;;;;;;5.13;1.83;;;6.20;89.50;;;;;;5038845;28;20037;-58
2021/04/06 10:41:18;;;;;;;8.97;1.57;;;5.90;92.60;;;;;;5054532;28;20541;-58
2021/04/06 10:43:48;;;;;;;8.70;1.90;;;5.40;96.60;;;;;;5038172;28;20384;-58
2021/04/06 10:46:22;;;;;;;6.30;1.33;;;5.10;98.40;;;;;;5051879;28;20291;-58
2021/04/06 10:48:53;;;;;;;4.93;0.90;;;5.10;98.50;;;;;;5038270;28;20802;-58
2021/04/06 10:51:27;;;;;;;3.27;0.90;;;5.00;97.40;;;;;;5038858;28;20309;-58
2021/04/06 10:53:59;;;;;;;9.20;1.10;;;4.90;99.30;;;;;;5027968;28;20280;-58
2021/04/06 10:56:32;;;;;;;5.35;1.25;;;4.80;99.90;;;;;;5039462;28;20842;-58
2021/04/06 10:59:04;;;;;;;3.63;1.30;;;4.60;99.90;;;;;;5039306;28;20514;-58
2021/04/06 11:01:49;;;;;;;2.15;0.77;;;4.60;99.90;;;;;;5038270;28;20352;-59
2021/04/06 11:04:25;;;;;;;6.10;1.17;;;4.60;99.90;;;;;;5046593;28;20053;-58
2021/04/06 11:07:02;;;;;;;13.07;1.77;;;4.90;99.90;;;;;;5038690;28;20322;-58
2021/04/06 11:09:38;;;;;;;4.93;1.33;;;5.10;99.90;;;;;;5037361;28;20279;-58
2021/04/06 11:12:10;;;;;;;4.77;1.50;;;5.20;99.90;;;;;;5038880;28;20290;-58
2021/04/06 11:14:40;;;;;;;6.80;1.50;;;5.60;99.80;;;;;;5038700;28;20286;-58
2021/04/06 11:17:06;;;;;;;4.87;1.33;;;5.90;98.80;;;;;;5037469;28;20033;-59
2021/04/06 11:19:36;;;;;;;4.13;1.27;;;6.50;98.00;;;;;;5038379;28;20271;-59
2021/04/06 11:22:11;;;;;;;7.63;1.90;;;6.90;94.90;;;;;;5038247;28;20025;-59
2021/04/06 11:24:44;;;;;;;2.93;0.90;;;7.10;93.30;;;;;;5029497;28;20033;-60
2021/04/06 11:27:10;;;;;;;;;;;6.90;93.10;;;;;;5042429;28;20766;-60
2021/04/06 11:29:38;;;;;;;7.00;1.63;;;6.60;90.10;;;;;;5039208;28;19913;-59
2021/04/06 11:32:10;;;;;;;9.43;1.80;;;6.40;91.70;;;;;;5041778;28;20700;-59
2021/04/06 11:34:36;;;;;;;;;;;6.10;93.10;;;;;;5042743;28;20023;-58
2021/04/06 11:37:03;;;;;;;2.07;0.67;;;5.70;90.00;;;;;;5048952;28;19913;-58
2021/04/06 11:39:31;;;;;;;6.67;1.23;;;5.40;91.00;;;;;;5042160;28;20114;-58
2021/04/06 11:41:58;;;;;;;2.50;1.03;;;5.30;91.50;;;;;;5041720;28;20294;-60
2021/04/06 11:44:26;;;;;;;5.37;1.40;;;5.20;93.20;;;;;;5041380;28;20743;-58
2021/04/06 11:46:53;;;;;;;7.73;1.60;;;5.20;94.60;;;;;;5042192;28;20334;-59
2021/04/06 11:49:21;;;;;;;4.30;1.70;;;5.30;95.60;;;;;;5042086;28;20367;-58
2021/04/06 11:51:50;;;;;;;5.23;1.80;;;5.40;95.50;;;;;;5041921;28;20310;-58
2021/04/06 11:54:18;;;;;;;4.17;1.90;;;5.30;96.80;;;;;;5042301;28;20282;-59
2021/04/06 11:56:43;;;;;;;6.67;2.00;;;4.90;98.70;;;;;;5041848;28;20924;-58
2021/04/06 11:59:09;;;;;;;6.40;2.03;;;4.70;99.90;;;;;;5041642;28;20271;-58
2021/04/06 12:01:35;;;;;;;3.47;1.13;;;4.40;99.90;;;;;;5041888;28;20033;-59
2021/04/06 12:04:03;;;;;;;4.17;1.10;;;3.50;99.90;;;;;;5038720;28;20053;-60
2021/04/06 12:06:29;;;;;;;3.53;0.90;;;3.00;99.90;;;;;;5042314;28;20295;-58
2021/04/06 12:08:55;;;;;;;2.53;0.77;;;2.70;99.90;;;;;;5040484;28;20286;-58
2021/04/06 12:11:21;;;;;;;2.57;0.80;;;2.80;99.90;;;;;;5038717;28;20052;-58
2021/04/06 12:13:47;;;;;;;3.93;0.80;;;3.00;99.90;;;;;;5040392;28;20675;-59
2021/04/06 12:16:14;;;;;;;2.97;1.00;;;3.40;99.90;;;;;;5038994;28;20310;-59
2021/04/06 12:18:40;;;;;;;1.83;1.00;;;3.70;99.90;;;;;;5030047;28;20299;-59
2021/04/06 12:21:08;;;;;;;3.37;0.93;;;4.20;99.90;;;;;;5030919;28;20315;-59
2021/04/06 12:23:34;;;;;;;12.17;1.40;;;4.50;99.90;;;;;;5041254;28;20049;-59
2021/04/06 12:25:59;;;;;;;6.20;1.40;;;4.70;99.90;;;;;;5038876;28;20375;-59
2021/04/06 12:28:25;;;;;;;2.83;1.50;;;4.90;99.90;;;;;;5039945;28;20037;-59
2021/04/06 12:30:50;;;;;;;7.37;1.83;;;5.30;99.90;;;;;;5047624;28;20166;-59
2021/04/06 12:33:16;;;;;;;3.77;1.20;;;6.00;99.90;;;;;;5037831;28;20047;-58
2021/04/06 12:35:46;;;;;;;3.83;1.17;;;6.80;99.90;;;;;;5039547;28;20144;-58
2021/04/06 12:38:12;;;;;;;3.40;1.30;;;7.60;97.80;;;;;;5040418;28;20029;-59
2021/04/06 12:40:40;;;;;;;3.23;1.00;;;8.50;95.90;;;;;;5040485;28;20024;-59
2021/04/06 12:43:06;;;;;;;4.90;1.13;;;9.70;93.30;;;;;;5040295;28;20433;-59
2021/04/06 12:45:34;;;;;;;12.53;2.13;;;10.90;85.20;;;;;;5040132;28;20029;-59
2021/04/06 12:48:00;;;;;;;5.83;1.50;;;11.60;81.50;;;;;;5041193;28;20025;-60
2021/04/06 12:50:26;;;;;;;5.43;1.70;;;10.70;80.90;;;;;;5039803;28;20039;-58
2021/04/06 12:52:53;;;;;;;5.33;1.73;;;9.70;89.30;;;;;;5040339;28;20124;-58
2021/04/06 12:55:21;;;;;;;4.00;1.40;;;9.20;87.50;;;;;;5030604;28;20044;-59
2021/04/06 12:57:48;;;;;;;5.60;1.70;;;8.60;87.30;;;;;;5039920;28;20033;-58
2021/04/06 13:00:15;;;;;;;5.63;1.57;;;7.90;93.20;;;;;;5041242;28;20032;-58
2021/04/06 13:02:40;;;;;;;4.23;1.20;;;7.10;91.80;;;;;;5038273;28;20057;-58
2021/04/06 13:05:07;;;;;;;3.37;1.47;;;6.60;91.60;;;;;;5039696;28;20499;-58
2021/04/06 13:07:32;;;;;;;4.03;1.40;;;6.50;92.50;;;;;;5040238;28;20033;-59
2021/04/06 13:09:58;;;;;;;4.80;1.20;;;6.90;93.20;;;;;;5040676;28;20040;-58